.
WxDataArchive / Data Records for 2007-10-28
2007-10-27 October 2007 2007-10-29

Data Records for Sunday, 28 October 2007

Time	Temp	Chill	HIndex	Humid	Dewpt	 Wind 	HiWind	WindDir	Rain 	Barom 
-----	----	-----	------	-----	-----	------	------	-------	-----	----- 
00:00	35.6	35.6	35.6	92	33.5	0	0	---	0.00	30.415 
00:05	35.5	35.5	35.5	92	33.4	0	0	---	0.00	30.415 
00:10	35.3	35.3	35.3	92	33.2	0	0	---	0.00	30.417 
00:15	35.2	35.2	35.2	92	33.1	0	0	---	0.00	30.417 
00:20	35.0	35.0	35.0	92	32.9	0	0	---	0.00	30.417 
00:25	34.9	34.9	34.9	92	32.8	0	0	---	0.00	30.419 
00:30	34.7	34.7	34.7	93	32.9	0	0	---	0.00	30.419 
00:35	34.7	34.7	34.7	93	32.9	0	0	---	0.00	30.421 
00:40	34.7	34.7	34.7	93	32.9	0	0	---	0.00	30.425 
00:45	34.7	34.7	34.7	93	32.9	0	0	---	0.00	30.426 
00:50	34.6	34.6	34.6	93	32.8	0	0	---	0.00	30.430 
00:55	34.7	34.7	34.7	93	32.9	0	0	---	0.00	30.431 
01:00	35.0	35.0	35.0	94	33.5	0	0	---	0.00	30.432 
01:05	35.2	35.2	35.2	94	33.6	0	0	---	0.00	30.433 
01:10	35.0	35.0	35.0	94	33.5	0	0	---	0.00	30.433 
01:15	35.0	35.0	35.0	94	33.5	0	0	---	0.00	30.434 
01:20	34.9	34.9	34.9	94	33.4	0	0	---	0.00	30.434 
01:25	34.9	34.9	34.9	94	33.4	0	0	---	0.00	30.435 
01:30	34.9	34.9	34.9	94	33.4	0	0	---	0.00	30.437 
01:35	34.9	34.9	34.9	94	33.4	0	0	---	0.00	30.438 
01:40	35.0	35.0	35.0	94	33.5	0	0	---	0.00	30.442 
01:45	35.0	35.0	35.0	94	33.5	0	0	---	0.00	30.445 
01:50	34.9	34.9	34.9	94	33.4	0	0	---	0.00	30.447 
01:55	34.9	34.9	34.9	94	33.4	0	0	---	0.00	30.448 
02:00	34.7	34.7	34.7	94	33.2	0	0	---	0.00	30.448 
02:05	34.6	34.6	34.6	94	33.1	0	0	---	0.00	30.446 
02:10	34.4	34.4	34.4	94	32.9	0	0	---	0.00	30.449 
02:15	34.3	34.3	34.3	94	32.8	0	0	---	0.00	30.449 
02:20	34.1	34.1	34.1	94	32.6	0	0	---	0.00	30.450 
02:25	34.0	34.0	34.0	94	32.5	0	0	---	0.00	30.451 
02:30	33.8	33.8	33.8	94	32.3	0	0	---	0.00	30.449 
02:35	33.5	33.5	33.5	94	32.0	0	0	---	0.00	30.451 
02:40	33.4	33.4	33.4	94	31.9	0	0	---	0.00	30.453 
02:45	33.1	33.1	33.1	94	31.6	0	0	---	0.00	30.452 
02:50	33.1	33.1	33.1	94	31.6	0	0	---	0.00	30.454 
02:55	32.9	32.9	32.9	94	31.4	0	0	---	0.00	30.455 
03:00	32.9	32.9	32.9	94	31.4	0	0	---	0.00	30.455 
03:05	32.9	32.9	32.9	94	31.4	0	0	---	0.00	30.458 
03:10	32.9	32.9	32.9	94	31.4	0	0	---	0.00	30.460 
03:15	33.1	33.1	33.1	95	31.8	0	0	---	0.00	30.460 
03:20	33.1	33.1	33.1	95	31.8	0	0	---	0.00	30.463 
03:25	33.2	33.2	33.2	95	31.9	0	0	---	0.00	30.463 
03:30	33.5	33.5	33.5	95	32.2	0	0	---	0.00	30.463 
03:35	34.1	34.1	34.1	95	32.8	0	0	---	0.00	30.464 
03:40	34.9	34.9	34.9	96	33.9	0	0	---	0.00	30.462 
03:45	35.2	35.2	35.2	96	34.2	0	0	---	0.00	30.463 
03:50	35.5	35.5	35.5	96	34.5	0	0	---	0.00	30.464 
03:55	35.8	35.8	35.8	96	34.8	0	0	---	0.00	30.465 
04:00	36.3	36.3	36.3	96	35.3	0	0	---	0.00	30.466 
04:05	36.8	36.8	36.8	96	35.8	0	0	---	0.00	30.465 
04:10	37.0	37.0	37.0	96	36.0	0	1	292	0.00	30.467 
04:15	37.2	37.2	37.2	96	36.2	0	0	---	0.00	30.469 
04:20	37.3	37.3	37.3	96	36.3	0	0	---	0.00	30.466 
04:25	37.3	37.3	37.3	96	36.3	0	0	---	0.00	30.469 
04:30	37.3	37.3	37.3	96	36.3	0	0	---	0.00	30.466 
04:35	37.0	37.0	37.0	96	36.0	0	0	---	0.00	30.467 
04:40	36.9	36.9	36.9	95	35.6	0	0	---	0.00	30.467 
04:45	36.6	36.6	36.6	95	35.3	0	0	---	0.00	30.465 
04:50	36.5	36.5	36.5	95	35.2	0	0	---	0.00	30.466 
04:55	36.2	36.2	36.2	95	34.9	0	0	---	0.00	30.467 
05:00	35.9	35.9	35.9	95	34.6	0	0	---	0.00	30.472 
05:05	35.6	35.6	35.6	95	34.3	0	0	---	0.00	30.475 
05:10	35.5	35.5	35.5	95	34.2	0	0	---	0.00	30.476 
05:15	35.2	35.2	35.2	95	33.9	0	0	---	0.00	30.480 
05:20	35.0	35.0	35.0	95	33.7	0	0	---	0.00	30.481 
05:25	34.9	34.9	34.9	95	33.6	0	0	---	0.00	30.482 
05:30	34.6	34.6	34.6	95	33.3	0	0	---	0.00	30.481 
05:35	34.4	34.4	34.4	95	33.1	0	0	---	0.00	30.482 
05:40	34.3	34.3	34.3	95	33.0	0	0	---	0.00	30.484 
05:45	34.1	34.1	34.1	95	32.8	0	0	---	0.00	30.486 
05:50	34.0	34.0	34.0	95	32.7	0	0	---	0.00	30.488 
05:55	34.0	34.0	34.0	95	32.7	0	0	---	0.00	30.489 
06:00	34.0	34.0	34.0	95	32.7	0	0	---	0.00	30.489 
06:05	34.0	34.0	34.0	95	32.7	0	0	---	0.00	30.490 
06:10	34.1	34.1	34.1	95	32.8	0	0	---	0.00	30.492 
06:15	34.1	34.1	34.1	95	32.8	0	0	---	0.00	30.495 
06:20	34.1	34.1	34.1	95	32.8	0	0	---	0.00	30.497 
06:25	34.3	34.3	34.3	95	33.0	0	0	---	0.00	30.499 
06:30	34.6	34.6	34.6	96	33.6	0	0	---	0.00	30.500 
06:35	34.7	34.7	34.7	96	33.7	0	0	---	0.00	30.499 
06:40	34.9	34.9	34.9	96	33.9	0	0	---	0.00	30.499 
06:45	35.2	35.2	35.2	96	34.2	0	0	---	0.00	30.500 
06:50	35.3	35.3	35.3	96	34.3	0	0	---	0.00	30.502 
06:55	35.3	35.3	35.3	96	34.3	0	0	---	0.00	30.502 
07:00	35.2	35.2	35.2	96	34.2	0	0	---	0.00	30.503 
07:05	35.2	35.2	35.2	96	34.2	0	0	---	0.00	30.509 
07:10	35.5	35.5	35.5	96	34.5	0	0	---	0.00	30.510 
07:15	35.6	35.6	35.6	96	34.6	0	0	---	0.00	30.510 
07:20	35.6	35.6	35.6	96	34.6	0	0	---	0.00	30.513 
07:25	35.5	35.5	35.5	96	34.5	0	0	---	0.00	30.513 
07:30	35.5	35.5	35.5	96	34.5	0	0	---	0.00	30.515 
07:35	35.6	35.6	35.6	96	34.6	0	0	---	0.00	30.516 
07:40	35.9	35.9	35.9	96	34.9	0	0	---	0.00	30.516 
07:45	36.0	36.0	36.0	96	35.0	0	0	---	0.00	30.517 
07:50	36.5	36.5	36.5	96	35.5	0	0	---	0.00	30.518 
07:55	36.6	36.6	36.6	95	35.3	0	0	---	0.00	30.519 
08:00	37.0	37.0	37.0	95	35.7	0	0	---	0.00	30.522 
08:05	37.3	37.3	37.3	95	36.0	0	1	292	0.00	30.525 
08:10	37.9	37.9	37.9	95	36.6	0	1	292	0.00	30.526 
08:15	38.3	38.3	38.3	95	37.0	0	1	292	0.00	30.528 
08:20	38.9	38.9	38.9	94	37.3	0	1	292	0.00	30.530 
08:25	39.5	39.5	39.5	92	37.4	0	1	292	0.00	30.529 
08:30	40.1	40.1	40.1	92	38.0	0	2	292	0.00	30.530 
08:35	40.8	40.8	40.8	90	38.1	0	1	270	0.00	30.531 
08:40	41.6	41.6	41.6	88	38.3	0	1	270	0.00	30.531 
08:45	42.2	42.2	42.2	85	38.0	0	2	270	0.00	30.530 
08:50	42.9	42.9	42.9	82	37.8	0	2	270	0.00	30.531 
08:55	43.6	43.6	43.6	79	37.5	1	3	270	0.00	30.534 
09:00	43.9	43.9	43.9	76	36.8	1	3	248	0.00	30.532 
09:05	44.3	44.3	44.3	76	37.2	0	2	248	0.00	30.541 
09:10	44.8	44.8	44.8	75	37.4	1	2	248	0.00	30.543 
09:15	45.2	45.2	45.2	75	37.8	0	1	248	0.00	30.543 
09:20	45.7	45.7	45.7	73	37.5	0	1	248	0.00	30.542 
09:25	46.2	46.2	46.2	72	37.7	1	2	248	0.00	30.544 
09:30	46.7	46.7	46.7	70	37.4	1	2	248	0.00	30.544 
09:35	47.1	47.1	47.1	68	37.1	1	2	248	0.00	30.544 
09:40	47.4	47.4	47.4	66	36.6	1	2	248	0.00	30.545 
09:45	47.9	47.9	47.9	67	37.5	0	2	248	0.00	30.543 
09:50	48.3	48.3	48.3	67	37.9	0	2	248	0.00	30.545 
09:55	48.8	48.8	48.8	64	37.2	0	2	248	0.00	30.545 
10:00	49.5	49.5	49.5	64	37.8	0	2	270	0.00	30.545 
10:05	49.8	49.8	49.8	60	36.5	1	2	270	0.00	30.545 
10:10	49.8	49.8	49.8	58	35.6	1	2	270	0.00	30.545 
10:15	50.1	50.1	50.1	59	36.3	1	2	270	0.00	30.545 
10:20	50.5	50.5	50.5	60	37.1	0	2	270	0.00	30.544 
10:25	50.5	50.5	50.5	57	35.8	1	2	270	0.00	30.546 
10:30	51.0	51.0	51.0	58	36.7	0	2	270	0.00	30.546 
10:35	51.3	51.3	51.3	56	36.1	1	2	270	0.00	30.548 
10:40	51.3	51.3	51.3	55	35.7	1	2	270	0.00	30.547 
10:45	51.7	51.7	51.7	55	36.1	0	2	315	0.00	30.545 
10:50	52.0	52.0	52.0	56	36.8	0	2	315	0.00	30.547 
10:55	52.2	52.2	52.2	54	36.1	1	3	315	0.00	30.548 
11:00	52.2	52.2	52.2	54	36.1	0	3	270	0.00	30.547 
11:05	52.6	52.6	52.6	55	36.9	0	4	270	0.00	30.550 
11:10	52.8	52.8	52.8	50	34.7	1	4	248	0.00	30.547 
11:15	53.1	53.1	53.1	49	34.4	0	2	338	0.00	30.548 
11:20	53.1	53.1	53.1	42	30.6	1	4	270	0.00	30.547 
11:25	53.3	53.3	53.3	50	35.1	1	4	270	0.00	30.545 
11:30	53.5	53.5	53.5	39	29.2	1	2	90	0.00	30.545 
11:35	53.6	53.6	53.6	41	30.5	1	3	270	0.00	30.543 
11:40	53.6	53.6	53.6	39	29.3	1	2	0	0.00	30.545 
11:45	53.9	53.9	53.9	41	30.7	1	5	338	0.00	30.542 
11:50	54.2	54.2	54.2	42	31.6	1	5	68	0.00	30.543 
11:55	54.5	54.5	54.5	37	28.8	1	3	45	0.00	30.542 
12:00	54.4	54.4	54.4	39	30.0	1	3	90	0.00	30.542 
12:05	54.4	54.4	54.4	37	28.7	1	4	68	0.00	30.544 
12:10	54.4	54.4	54.4	36	28.0	1	3	45	0.00	30.544 
12:15	54.2	54.2	54.2	39	29.8	1	3	45	0.00	30.542 
12:20	54.5	54.5	54.5	36	28.1	1	3	0	0.00	30.538 
12:25	54.5	54.5	54.5	38	29.4	0	2	292	0.00	30.538 
12:30	54.5	54.5	54.5	38	29.4	0	1	292	0.00	30.541 
12:35	54.8	54.8	54.8	43	32.7	0	2	292	0.00	30.538 
12:40	54.8	54.8	54.8	36	28.4	1	4	292	0.00	30.537 
12:45	53.9	53.9	53.9	36	27.6	0	2	292	0.00	30.538 
12:50	53.5	53.5	53.5	38	28.5	0	2	292	0.00	30.532 
12:55	53.6	53.6	53.6	37	28.0	1	4	90	0.00	30.529 
13:00	53.6	53.6	53.6	40	29.9	1	3	112	0.00	30.529 
13:05	54.1	54.1	54.1	37	28.4	0	4	112	0.00	30.529 
13:10	54.7	54.7	54.7	37	28.9	1	4	248	0.00	30.527 
13:15	54.8	54.8	54.8	33	26.3	1	2	315	0.00	30.526 
13:20	54.8	54.8	54.8	35	27.7	1	3	248	0.00	30.526 
13:25	54.7	54.7	54.7	34	26.9	1	4	68	0.00	30.526 
13:30	54.7	54.7	54.7	33	26.2	1	3	315	0.00	30.526 
13:35	55.0	55.0	55.0	35	27.9	1	2	315	0.00	30.526 
13:40	55.1	55.1	55.1	35	27.9	0	4	315	0.00	30.524 
13:45	55.1	55.1	55.1	34	27.2	1	2	0	0.00	30.524 
13:50	55.1	55.1	55.1	35	27.9	1	3	270	0.00	30.523 
13:55	55.3	55.3	55.3	35	28.1	1	3	292	0.00	30.522 
14:00	54.7	54.7	54.7	34	26.9	0	2	292	0.00	30.523 
14:05	54.2	54.2	54.2	35	27.2	0	2	292	0.00	30.525 
14:10	54.5	54.5	54.5	35	27.4	1	3	270	0.00	30.520 
14:15	54.8	54.8	54.8	36	28.4	0	2	292	0.00	30.516 
14:20	55.0	55.0	55.0	34	27.2	0	3	112	0.00	30.514 
14:25	55.1	55.1	55.1	35	27.9	0	2	45	0.00	30.512 
14:30	55.1	55.1	55.1	36	28.6	1	3	22	0.00	30.511 
14:35	55.3	55.3	55.3	36	28.8	1	2	292	0.00	30.511 
14:40	55.0	55.0	55.0	35	27.9	1	3	270	0.00	30.512 
14:45	54.5	54.5	54.5	34	26.7	0	1	270	0.00	30.513 
14:50	54.5	54.5	54.5	35	27.4	0	1	270	0.00	30.512 
14:55	54.5	54.5	54.5	36	28.1	1	3	112	0.00	30.512 
15:00	54.7	54.7	54.7	35	27.6	0	3	270	0.00	30.512 
15:05	54.8	54.8	54.8	33	26.3	0	1	315	0.00	30.510 
15:10	55.0	55.0	55.0	34	27.2	0	2	90	0.00	30.509 
15:15	55.1	55.1	55.1	35	27.9	1	4	90	0.00	30.508 
15:20	54.8	54.8	54.8	34	27.0	1	4	292	0.00	30.509 
15:25	54.7	54.7	54.7	33	26.2	0	1	292	0.00	30.509 
15:30	54.8	54.8	54.8	34	27.0	0	2	292	0.00	30.505 
15:35	55.0	55.0	55.0	34	27.2	0	1	292	0.00	30.503 
15:40	55.0	55.0	55.0	36	28.5	0	1	292	0.00	30.500 
15:45	54.8	54.8	54.8	35	27.7	0	1	292	0.00	30.501 
15:50	54.5	54.5	54.5	35	27.4	0	1	292	0.00	30.501 
15:55	54.5	54.5	54.5	39	30.1	0	1	292	0.00	30.499 
16:00	54.5	54.5	54.5	34	26.7	0	2	292	0.00	30.498 
16:05	54.4	54.4	54.4	38	29.3	0	1	292	0.00	30.497 
16:10	54.2	54.2	54.2	34	26.4	0	1	292	0.00	30.497 
16:15	54.1	54.1	54.1	38	29.1	0	0	---	0.00	30.496 
16:20	54.1	54.1	54.1	37	28.4	0	2	292	0.00	30.496 
16:25	53.9	53.9	53.9	38	28.9	0	2	292	0.00	30.496 
16:30	53.9	53.9	53.9	37	28.2	0	1	292	0.00	30.495 
16:35	53.8	53.8	53.8	36	27.5	0	1	292	0.00	30.494 
16:40	53.6	53.6	53.6	37	28.0	0	1	292	0.00	30.493 
16:45	53.5	53.5	53.5	40	29.8	0	1	292	0.00	30.492 
16:50	53.3	53.3	53.3	39	29.0	0	0	---	0.00	30.493 
16:55	53.1	53.1	53.1	37	27.5	0	0	---	0.00	30.493 
17:00	52.9	52.9	52.9	36	26.7	0	1	292	0.00	30.494 
17:05	52.8	52.8	52.8	37	27.3	0	0	---	0.00	30.497 
17:10	52.5	52.5	52.5	39	28.3	0	0	---	0.00	30.498 
17:15	52.2	52.2	52.2	40	28.6	0	0	---	0.00	30.498 
17:20	51.9	51.9	51.9	41	28.9	0	0	---	0.00	30.498 
17:25	51.4	51.4	51.4	45	30.8	0	0	---	0.00	30.497 
17:30	50.8	50.8	50.8	46	30.8	0	0	---	0.00	30.498 
17:35	50.2	50.2	50.2	47	30.8	0	0	---	0.00	30.498 
17:40	49.5	49.5	49.5	49	31.1	0	0	---	0.00	30.499 
17:45	48.9	48.9	48.9	50	31.1	0	0	---	0.00	30.500 
17:50	48.2	48.2	48.2	54	32.3	0	0	---	0.00	30.499 
17:55	47.6	47.6	47.6	56	32.7	0	0	---	0.00	30.499 
18:00	47.0	47.0	47.0	55	31.7	0	0	---	0.00	30.502 
18:05	46.2	46.2	46.2	59	32.7	0	0	---	0.00	30.503 
18:10	45.7	45.7	45.7	61	33.0	0	0	---	0.00	30.503 
18:15	45.2	45.2	45.2	62	33.0	0	0	---	0.00	30.502 
18:20	44.9	44.9	44.9	65	33.9	0	0	---	0.00	30.503 
18:25	44.3	44.3	44.3	66	33.7	0	0	---	0.00	30.504 
18:30	43.9	43.9	43.9	67	33.7	0	0	---	0.00	30.508 
18:35	43.5	43.5	43.5	67	33.3	0	0	---	0.00	30.511 
18:40	43.2	43.2	43.2	69	33.7	0	0	---	0.00	30.512 
18:45	42.8	42.8	42.8	70	33.7	0	0	---	0.00	30.518 
18:50	42.5	42.5	42.5	71	33.8	0	0	---	0.00	30.518 
18:55	42.2	42.2	42.2	72	33.8	0	0	---	0.00	30.521 
19:00	41.9	41.9	41.9	73	33.9	0	0	---	0.00	30.522 
19:05	41.6	41.6	41.6	73	33.6	0	0	---	0.00	30.520 
19:10	41.5	41.5	41.5	73	33.5	0	0	---	0.00	30.518 
19:15	41.2	41.2	41.2	74	33.6	0	0	---	0.00	30.519 
19:20	40.8	40.8	40.8	75	33.5	0	0	---	0.00	30.521 
19:25	40.5	40.5	40.5	76	33.5	0	0	---	0.00	30.521 
19:30	40.2	40.2	40.2	76	33.3	0	0	---	0.00	30.525 
19:35	40.1	40.1	40.1	77	33.5	0	0	---	0.00	30.524 
19:40	39.9	39.9	39.9	78	33.6	0	0	---	0.00	30.523 
19:45	39.6	39.6	39.6	78	33.3	0	0	---	0.00	30.523 
19:50	39.5	39.5	39.5	78	33.2	0	0	---	0.00	30.523 
19:55	39.2	39.2	39.2	79	33.2	0	0	---	0.00	30.522 
20:00	39.1	39.1	39.1	80	33.5	0	0	---	0.00	30.522 
20:05	38.8	38.8	38.8	80	33.2	0	0	---	0.00	30.516 
20:10	38.6	38.6	38.6	81	33.3	0	0	---	0.00	30.515 
20:15	38.5	38.5	38.5	81	33.2	0	0	---	0.00	30.515 
20:20	38.2	38.2	38.2	82	33.2	0	0	---	0.00	30.515 
20:25	38.0	38.0	38.0	83	33.3	0	0	---	0.00	30.516 
20:30	37.8	37.8	37.8	83	33.1	0	0	---	0.00	30.515 
20:35	37.6	37.6	37.6	84	33.2	0	0	---	0.00	30.514 
20:40	37.3	37.3	37.3	84	32.9	0	0	---	0.00	30.507 
20:45	37.2	37.2	37.2	84	32.8	0	0	---	0.00	30.508 
20:50	37.0	37.0	37.0	85	32.9	0	0	---	0.00	30.511 
20:55	36.9	36.9	36.9	85	32.8	0	0	---	0.00	30.508 
21:00	36.8	36.8	36.8	86	33.0	0	0	---	0.00	30.505 
21:05	36.6	36.6	36.6	87	33.1	0	0	---	0.00	30.498 
21:10	36.6	36.6	36.6	87	33.1	0	1	292	0.00	30.499 
21:15	36.6	36.6	36.6	87	33.1	0	0	---	0.00	30.497 
21:20	36.5	36.5	36.5	88	33.3	0	1	292	0.00	30.495 
21:25	36.5	36.5	36.5	88	33.3	0	1	292	0.00	30.489 
21:30	36.3	36.3	36.3	88	33.1	0	0	---	0.00	30.491 
21:35	36.2	36.2	36.2	88	33.0	0	0	---	0.00	30.490 
21:40	36.2	36.2	36.2	88	33.0	0	0	---	0.00	30.489 
21:45	36.0	36.0	36.0	88	32.8	0	0	---	0.00	30.489 
21:50	35.9	35.9	35.9	88	32.7	0	0	---	0.00	30.488 
21:55	35.6	35.6	35.6	88	32.4	0	0	---	0.00	30.483 
22:00	35.5	35.5	35.5	89	32.6	0	0	---	0.00	30.482 
22:05	35.3	35.3	35.3	89	32.4	0	0	---	0.00	30.478 
22:10	35.3	35.3	35.3	89	32.4	0	0	---	0.00	30.479 
22:15	35.2	35.2	35.2	89	32.3	0	0	---	0.00	30.478 
22:20	35.0	35.0	35.0	90	32.4	0	0	---	0.00	30.477 
22:25	34.9	34.9	34.9	90	32.3	0	0	---	0.00	30.474 
22:30	34.7	34.7	34.7	90	32.1	0	0	---	0.00	30.478 
22:35	34.7	34.7	34.7	90	32.1	0	0	---	0.00	30.479 
22:40	34.6	34.6	34.6	90	32.0	0	0	---	0.00	30.480 
22:45	34.4	34.4	34.4	90	31.8	0	0	---	0.00	30.480 
22:50	34.4	34.4	34.4	90	31.8	0	0	---	0.00	30.478 
22:55	34.3	34.3	34.3	91	32.0	0	0	---	0.00	30.480 
23:00	34.3	34.3	34.3	91	32.0	0	0	---	0.00	30.479 
23:05	34.3	34.3	34.3	91	32.0	0	0	---	0.00	30.479 
23:10	34.1	34.1	34.1	91	31.8	0	0	---	0.00	30.481 
23:15	34.1	34.1	34.1	91	31.8	0	0	---	0.00	30.483 
23:20	34.1	34.1	34.1	91	31.8	0	0	---	0.00	30.483 
23:25	34.1	34.1	34.1	91	31.8	0	0	---	0.00	30.484 
23:30	34.3	34.3	34.3	92	32.2	0	0	---	0.00	30.487 
23:35	34.1	34.1	34.1	92	32.0	0	0	---	0.00	30.484 
23:40	34.1	34.1	34.1	91	31.8	0	0	---	0.00	30.480 
23:45	34.0	34.0	34.0	91	31.7	0	0	---	0.00	30.480 
23:50	33.8	33.8	33.8	91	31.5	0	0	---	0.00	30.479 
23:55	33.8	33.8	33.8	92	31.7	0	0	---	0.00	30.481 

CoCoRaHS
IN-AL-39
A2 Web Hosting
Creative Commons License
GoDaddy
Look for:

loaded 2017-10-17 18:16:32 • last modified 2010-11-18 10:43:29
Privacy PolicyDisclaimer
• wx.awcolley.com is powered by PmWiki v.2002016 •
• all content (unless otherwise noted) © 2017 A W Colley